Shiraz International Airport

Airport
ICAO code: 
OISS
IATA Code: 
SYZ
Summary
ICAO Region: 
MID
Territory: 
Location: 
Shiraz, Fars Province
Serving: 
Shiraz
Elevation: 
4920 ft
Coordinates: 
Aerial View: 
29° 32' 21" N, 52° 35' 24" E
Metar
Observation
OISS 030800Z 00000KT 6000 NSC 40/03 Q1005 A2969
Station
Shiraz
Date/Time
2022-07-03 08:00:00
Wind direction
Wind speed
00 kts
Lowest cloud amount
nil significant cloud
Temperature
40°C
Dew point
3°C
Humidity
10%
QNH
1005 hPa
Weather condition
n/a

Shiraz International Airport is located in Shiraz, Iran. It is the main international airport of Fars province.

Climatology

Cold Semi-arid climate (Köppen climate classification BSk). - Hot, sometimes extremely hot summers and cold, sometimes very cold winters. Some snowfall during the winter. Areas featuring cold semi-arid climates are sometimes subject to major temperature swings during a 24 hour period.

Runways

Designator Length Width Surface Rops
11R/29L 4283 45 ASP Yes/Yes
11L/29R 4372 45 ASP Yes/Yes
Airport map: 
Aerial View: 

SKYbrary Partners:

Safety knowledge contributed by: